createdAt,value
2022-12-14T00:00:14.867Z,98689.44
2022-12-14T00:02:43.279Z,98694.66
2022-12-14T00:05:11.772Z,98703.13
2022-12-14T00:07:40.837Z,98694.63
2022-12-14T00:10:10.427Z,98688.75
2022-12-14T00:12:39.051Z,98690.50
2022-12-14T00:15:12.499Z,98704.09
2022-12-14T00:17:41.061Z,98704.81
2022-12-14T00:20:17.513Z,98695.41
2022-12-14T00:22:46.115Z,98697.94
2022-12-14T00:25:15.192Z,98706.53
2022-12-14T00:27:44.937Z,98705.59
2022-12-14T00:30:16.917Z,98697.97
2022-12-14T00:32:45.406Z,98693.72
2022-12-14T00:35:16.676Z,98692.94
2022-12-14T00:37:45.914Z,98693.78
2022-12-14T00:40:17.418Z,98709.13
2022-12-14T00:42:46.995Z,98716.69
2022-12-14T00:45:18.434Z,98745.44
2022-12-14T00:47:46.821Z,98716.50
2022-12-14T00:50:15.119Z,98706.25
2022-12-14T00:52:43.473Z,98720.63
2022-12-14T00:55:12.018Z,98714.53
2022-12-14T00:57:40.707Z,98721.06
2022-12-14T01:00:10.138Z,98717.63
2022-12-14T01:02:40.706Z,98720.81
2022-12-14T01:05:09.911Z,98735.00
2022-12-14T01:07:38.238Z,98726.28
2022-12-14T01:10:07.238Z,98729.47
2022-12-14T01:12:35.537Z,98725.16
2022-12-14T01:15:05.458Z,98733.59
2022-12-14T01:17:34.124Z,98717.25
2022-12-14T01:20:04.566Z,98720.56
2022-12-14T01:22:33.421Z,98712.91
2022-12-14T01:25:04.032Z,98716.91
2022-12-14T01:27:32.915Z,98727.97
2022-12-14T01:30:01.236Z,98729.94
2022-12-14T01:32:29.723Z,98731.88
2022-12-14T01:34:58.030Z,98730.84
2022-12-14T01:37:29.085Z,98731.22
2022-12-14T01:39:57.761Z,98731.28
2022-12-14T01:42:26.042Z,98730.56
2022-12-14T01:44:58.145Z,98735.59
2022-12-14T01:47:42.557Z,98726.97
2022-12-14T01:50:20.660Z,98728.53
2022-12-14T01:52:52.390Z,98732.72
2022-12-14T01:55:23.989Z,98732.69
2022-12-14T01:57:55.907Z,98736.00
2022-12-14T02:00:25.514Z,98741.16
2022-12-14T02:03:00.499Z,98746.53
2022-12-14T02:05:31.614Z,98741.34
2022-12-14T02:08:01.580Z,98748.28
2022-12-14T02:10:32.582Z,98752.50
2022-12-14T02:13:07.270Z,98742.97
2022-12-14T02:15:39.009Z,98750.59
2022-12-14T02:18:13.288Z,98744.81
2022-12-14T02:20:50.980Z,98743.31
2022-12-14T02:23:43.085Z,98744.81
2022-12-14T02:26:44.842Z,98731.19
2022-12-14T02:29:43.135Z,98741.66
2022-12-14T02:32:24.976Z,98754.22
2022-12-14T02:35:01.254Z,98760.06
2022-12-14T02:37:39.829Z,98754.88
2022-12-14T02:40:23.238Z,98759.50
2022-12-14T02:43:04.465Z,98762.53
2022-12-14T02:45:41.324Z,98757.41
2022-12-14T02:48:15.877Z,98761.09
2022-12-14T02:50:53.731Z,98760.06
2022-12-14T02:53:28.225Z,98766.69
2022-12-14T02:56:02.136Z,98772.69
2022-12-14T02:58:36.469Z,98769.25
2022-12-14T03:01:10.792Z,98777.78
2022-12-14T03:03:40.328Z,98782.97
2022-12-14T03:06:15.782Z,98778.72
2022-12-14T03:08:47.589Z,98767.06
2022-12-14T03:11:22.145Z,98767.16
2022-12-14T03:13:55.462Z,98775.81
2022-12-14T03:16:28.754Z,98770.69
2022-12-14T03:19:02.842Z,98773.31
2022-12-14T03:21:36.665Z,98775.88
2022-12-14T03:24:09.779Z,98772.41
2022-12-14T03:26:47.169Z,98783.63
2022-12-14T03:29:22.024Z,98792.06
2022-12-14T03:31:57.124Z,98793.50
2022-12-14T03:34:30.884Z,98793.63
2022-12-14T03:37:07.793Z,98789.31
2022-12-14T03:39:37.950Z,98789.41
2022-12-14T03:42:16.514Z,98785.25
2022-12-14T03:44:50.312Z,98788.75
2022-12-14T03:47:35.726Z,98787.16
2022-12-14T03:50:08.869Z,98794.34
2022-12-14T03:52:40.886Z,98787.53
2022-12-14T03:55:21.763Z,98790.09
2022-12-14T03:58:20.116Z,98774.69
2022-12-14T04:00:56.193Z,98767.13
2022-12-14T04:03:31.204Z,98762.00
2022-12-14T04:06:05.058Z,98759.47
2022-12-14T04:08:41.866Z,98765.47
2022-12-14T04:11:37.540Z,98751.84
2022-12-14T04:14:32.425Z,98769.69
2022-12-14T04:17:23.462Z,98759.53
2022-12-14T04:19:58.231Z,98774.84
2022-12-14T04:22:32.723Z,98774.66
2022-12-14T04:25:34.695Z,98768.78
2022-12-14T04:28:08.809Z,98774.69
2022-12-14T04:30:40.648Z,98784.84
2022-12-14T04:33:26.241Z,98783.09
2022-12-14T04:35:59.671Z,98787.16
2022-12-14T04:38:35.127Z,98777.91
2022-12-14T04:41:08.231Z,98782.31
2022-12-14T04:43:40.340Z,98782.16
2022-12-14T04:46:12.171Z,98774.50
2022-12-14T04:48:47.091Z,98777.00
2022-12-14T04:51:26.481Z,98786.34
2022-12-14T04:53:59.926Z,98792.19
2022-12-14T04:56:35.954Z,98786.09
2022-12-14T04:59:04.730Z,98788.66
2022-12-14T05:01:43.936Z,98790.38
2022-12-14T05:04:24.960Z,98781.94
2022-12-14T05:07:06.400Z,98777.63
2022-12-14T05:09:40.723Z,98783.47
2022-12-14T05:12:14.744Z,98780.00
2022-12-14T05:14:49.808Z,98784.44
2022-12-14T05:17:18.608Z,98785.28
2022-12-14T05:19:48.583Z,98784.41
2022-12-14T05:22:20.917Z,98777.69
2022-12-14T05:24:49.679Z,98777.72
2022-12-14T05:27:17.971Z,98775.16
2022-12-14T05:29:46.950Z,98776.88
2022-12-14T05:32:15.704Z,98766.56
2022-12-14T05:34:45.313Z,98775.06
2022-12-14T05:37:18.189Z,98780.19
2022-12-14T05:39:48.320Z,98775.78
2022-12-14T05:42:17.826Z,98784.13
2022-12-14T05:44:46.127Z,98774.75
2022-12-14T05:47:16.585Z,98776.47
2022-12-14T05:49:45.687Z,98790.06
2022-12-14T05:52:17.938Z,98785.75
2022-12-14T05:54:48.946Z,98784.03
2022-12-14T05:57:17.529Z,98788.94
2022-12-14T05:59:47.860Z,98788.91
2022-12-14T06:02:16.669Z,98781.16
2022-12-14T06:04:45.153Z,98782.91
2022-12-14T06:07:13.744Z,98780.22
2022-12-14T06:09:42.121Z,98794.63
2022-12-14T06:12:11.946Z,98809.13
2022-12-14T06:14:40.302Z,98789.31
2022-12-14T06:17:08.839Z,98784.00
2022-12-14T06:19:37.693Z,98785.50
2022-12-14T06:22:06.030Z,98794.19
2022-12-14T06:24:34.466Z,98787.47
2022-12-14T06:27:02.974Z,98777.16
2022-12-14T06:29:32.941Z,98780.56
2022-12-14T06:32:02.787Z,98787.19
2022-12-14T06:34:36.726Z,98793.06
2022-12-14T06:37:07.481Z,98788.03
2022-12-14T06:39:35.832Z,98788.13
2022-12-14T06:42:04.752Z,98776.13
2022-12-14T06:44:34.574Z,98798.91
2022-12-14T06:47:03.039Z,98797.25
2022-12-14T06:49:31.549Z,98790.44
2022-12-14T06:51:59.984Z,98786.91
2022-12-14T06:54:28.484Z,98797.13
2022-12-14T06:56:56.897Z,98792.19
2022-12-14T06:59:25.230Z,98787.09
2022-12-14T07:01:56.075Z,98788.59
2022-12-14T07:04:24.767Z,98796.38
2022-12-14T07:06:53.156Z,98802.25
2022-12-14T07:09:21.553Z,98791.81
2022-12-14T07:11:51.292Z,98796.88
2022-12-14T07:14:19.737Z,98802.78
2022-12-14T07:16:49.360Z,98799.38
2022-12-14T07:19:20.014Z,98821.66
2022-12-14T07:21:48.327Z,98802.69
2022-12-14T07:24:17.665Z,98800.91
2022-12-14T07:26:46.137Z,98799.19
2022-12-14T07:29:15.277Z,98800.13
2022-12-14T07:31:43.966Z,98783.72
2022-12-14T07:34:19.547Z,98782.84
2022-12-14T07:36:51.555Z,98787.13
2022-12-14T07:39:21.482Z,98785.50
2022-12-14T07:41:50.786Z,98800.03
2022-12-14T07:44:22.259Z,98805.03
2022-12-14T07:46:51.820Z,98802.53
2022-12-14T07:49:21.805Z,98816.97
2022-12-14T07:51:50.262Z,98827.19
2022-12-14T07:54:18.787Z,98835.53
2022-12-14T07:56:47.140Z,98836.28
2022-12-14T07:59:16.693Z,98829.34
2022-12-14T08:01:46.052Z,98840.44
2022-12-14T08:04:16.489Z,98825.16
2022-12-14T08:06:48.140Z,98832.66
2022-12-14T08:09:17.787Z,98833.91
2022-12-14T08:11:47.388Z,98834.78
2022-12-14T08:14:18.979Z,98854.16
2022-12-14T08:16:48.407Z,98846.50
2022-12-14T08:19:17.457Z,98844.56
2022-12-14T08:21:47.542Z,98848.84
2022-12-14T08:24:16.996Z,98870.41
2022-12-14T08:26:49.480Z,98847.56
2022-12-14T08:29:19.196Z,98848.69
2022-12-14T08:31:48.157Z,98851.28
2022-12-14T08:34:22.871Z,98848.69
2022-12-14T08:36:52.769Z,98853.81
2022-12-14T08:39:21.305Z,98858.09
2022-12-14T08:41:49.753Z,98845.09
2022-12-14T08:44:18.899Z,98861.31
2022-12-14T08:46:47.908Z,98863.94
2022-12-14T08:49:18.355Z,98863.00
2022-12-14T08:51:46.702Z,98866.34
2022-12-14T08:54:18.828Z,98868.03
2022-12-14T08:56:47.593Z,98874.13
2022-12-14T08:59:36.981Z,98876.59
2022-12-14T09:02:06.737Z,98893.53
2022-12-14T09:04:36.282Z,98911.22
2022-12-14T09:07:05.090Z,98902.78
2022-12-14T09:09:37.750Z,98912.81
2022-12-14T09:12:07.871Z,98932.34
2022-12-14T09:14:36.642Z,98947.53
2022-12-14T09:17:05.445Z,98941.63
2022-12-14T09:19:33.811Z,98935.75
2022-12-14T09:22:02.245Z,98933.19
2022-12-14T09:24:30.728Z,98936.72
2022-12-14T09:27:02.796Z,98932.84
2022-12-14T09:29:31.767Z,98932.03
2022-12-14T09:32:01.463Z,98939.69
2022-12-14T09:34:29.996Z,98951.50
2022-12-14T09:36:58.408Z,98977.22
2022-12-14T09:39:27.005Z,99000.91
2022-12-14T09:42:09.179Z,99011.25
2022-12-14T09:44:50.910Z,99014.56
2022-12-14T09:47:22.228Z,99005.94
2022-12-14T09:49:55.677Z,99021.38
2022-12-14T09:52:27.399Z,99024.97
2022-12-14T09:54:58.537Z,99030.16
2022-12-14T09:57:32.216Z,99026.84
2022-12-14T10:00:00.656Z,99019.19
2022-12-14T10:02:42.633Z,99014.94
2022-12-14T10:05:34.217Z,99054.09
2022-12-14T10:08:12.509Z,99017.31
2022-12-14T10:10:51.435Z,99014.94
2022-12-14T10:13:34.495Z,99022.59
2022-12-14T10:16:16.368Z,99034.47
2022-12-14T10:19:04.941Z,99033.50
2022-12-14T10:21:43.841Z,99042.03
2022-12-14T10:24:22.846Z,99036.75
2022-12-14T10:26:53.431Z,99049.50
2022-12-14T10:29:37.445Z,99047.13
2022-12-14T10:32:17.071Z,99060.63
2022-12-14T10:34:45.800Z,99077.66
2022-12-14T10:37:25.743Z,99063.94
2022-12-14T10:40:31.233Z,99069.13
2022-12-14T10:43:26.049Z,99062.13
2022-12-14T10:46:11.878Z,99049.28
2022-12-14T10:48:52.463Z,99056.13
2022-12-14T10:51:26.785Z,99066.38
2022-12-14T10:53:59.971Z,99066.28
2022-12-14T10:56:32.759Z,99071.34
2022-12-14T10:59:27.605Z,99062.88
2022-12-14T11:02:04.176Z,99062.03
2022-12-14T11:04:36.941Z,99069.72
2022-12-14T11:07:06.628Z,99071.41
2022-12-14T11:09:35.714Z,99084.03
2022-12-14T11:12:07.735Z,99090.06
2022-12-14T11:14:37.633Z,99085.84
2022-12-14T11:17:08.038Z,99078.25
2022-12-14T11:19:37.682Z,99082.22
2022-12-14T11:22:15.791Z,99077.84
2022-12-14T11:24:49.997Z,99088.19
2022-12-14T11:27:21.397Z,99070.13
2022-12-14T11:29:52.064Z,99076.94
2022-12-14T11:32:26.605Z,99069.25
2022-12-14T11:35:00.427Z,99086.06
2022-12-14T11:37:31.817Z,99082.59
2022-12-14T11:40:03.689Z,99097.13
2022-12-14T11:42:32.451Z,99081.84
2022-12-14T11:45:28.437Z,99076.56
2022-12-14T11:48:21.000Z,99085.88
2022-12-14T11:50:50.998Z,99079.84
2022-12-14T11:53:21.074Z,99079.84
2022-12-14T11:55:55.381Z,99079.19
2022-12-14T11:58:27.919Z,99093.66
2022-12-14T12:01:00.846Z,99090.13
2022-12-14T12:03:32.606Z,99093.53
2022-12-14T12:06:04.706Z,99088.50
2022-12-14T12:08:39.274Z,99095.13
2022-12-14T12:11:17.364Z,99100.81
2022-12-14T12:13:48.760Z,99103.31
2022-12-14T12:16:20.471Z,99111.19
2022-12-14T12:18:54.297Z,99112.19
2022-12-14T12:21:26.265Z,99105.31
2022-12-14T12:24:02.519Z,99099.97
2022-12-14T12:26:36.335Z,99110.09
2022-12-14T12:29:12.427Z,99105.63
2022-12-14T12:31:46.641Z,99112.47
2022-12-14T12:34:21.246Z,99125.56
2022-12-14T12:37:24.736Z,99107.84
2022-12-14T12:39:44.144Z,99106.03
2022-12-14T12:42:22.132Z,99090.66
2022-12-14T12:44:59.504Z,99099.31
2022-12-14T12:47:46.231Z,99094.16
2022-12-14T12:50:19.023Z,99112.84
2022-12-14T12:53:02.458Z,99103.25
2022-12-14T12:55:36.793Z,99105.22
2022-12-14T12:58:10.153Z,99099.22
2022-12-14T13:00:42.080Z,99106.78
2022-12-14T13:03:17.687Z,99111.25
2022-12-14T13:05:49.354Z,99113.56
2022-12-14T13:08:27.690Z,99123.16
2022-12-14T13:13:51.169Z,99120.56
2022-12-14T13:16:27.482Z,99129.84
2022-12-14T13:19:25.492Z,99131.50
2022-12-14T13:21:57.144Z,99141.06
2022-12-14T13:24:27.698Z,99137.63
2022-12-14T13:27:28.557Z,99136.78
2022-12-14T13:30:10.959Z,99137.53
2022-12-14T13:33:14.187Z,99144.38
2022-12-14T13:36:02.723Z,99137.44
2022-12-14T13:38:54.174Z,99132.31
2022-12-14T13:41:34.398Z,99136.56
2022-12-14T13:44:26.584Z,99129.69
2022-12-14T13:47:03.753Z,99139.78
2022-12-14T13:49:33.605Z,99136.59
2022-12-14T13:52:02.408Z,99139.78
2022-12-14T13:54:37.282Z,99144.06
2022-12-14T13:57:09.737Z,99145.91
2022-12-14T13:59:42.618Z,99149.31
2022-12-14T14:02:40.057Z,99152.13
2022-12-14T14:05:46.960Z,99138.78
2022-12-14T14:08:39.239Z,99139.59
2022-12-14T14:11:56.255Z,99146.25
2022-12-14T14:14:48.094Z,99132.66
2022-12-14T14:17:25.059Z,99153.22
2022-12-14T14:19:56.084Z,99144.75
2022-12-14T14:22:27.323Z,99135.25
2022-12-14T14:25:02.015Z,99131.91
2022-12-14T14:27:38.796Z,99149.69
2022-12-14T14:30:26.160Z,99135.25
2022-12-14T14:33:07.672Z,99135.16
2022-12-14T14:35:44.399Z,99151.72
2022-12-14T14:38:28.487Z,99155.94
2022-12-14T14:41:18.338Z,99166.16
2022-12-14T14:43:54.279Z,99170.25
2022-12-14T14:46:35.808Z,99187.31
2022-12-14T14:49:06.794Z,99187.63
2022-12-14T14:51:37.745Z,99181.81
2022-12-14T14:57:34.713Z,99173.56
2022-12-14T15:00:13.639Z,99194.13
2022-12-14T15:02:43.207Z,99187.22
2022-12-14T15:08:18.929Z,99174.38
2022-12-14T15:10:49.998Z,99181.38
2022-12-14T15:13:22.097Z,99195.91
2022-12-14T15:15:53.565Z,99203.41
2022-12-14T15:18:24.323Z,99211.84
2022-12-14T15:20:58.685Z,99206.75
2022-12-14T15:23:32.633Z,99217.09
2022-12-14T15:26:03.140Z,99227.13
2022-12-14T15:28:32.269Z,99241.75
2022-12-14T15:31:02.194Z,99221.25
2022-12-14T15:33:34.376Z,99237.47
2022-12-14T15:36:08.172Z,99225.41
2022-12-14T15:38:38.070Z,99226.28
2022-12-14T15:41:14.492Z,99239.84
2022-12-14T15:43:46.001Z,99236.25
2022-12-14T15:46:19.485Z,99239.75
2022-12-14T15:48:56.804Z,99239.69
2022-12-14T15:51:30.013Z,99231.22
2022-12-14T15:54:00.210Z,99249.16
2022-12-14T15:56:31.718Z,99235.59
2022-12-14T15:59:02.501Z,99233.72
2022-12-14T16:01:36.595Z,99240.78
2022-12-14T16:04:07.737Z,99227.94
2022-12-14T16:06:43.883Z,99243.91
2022-12-14T16:09:24.083Z,99232.91
2022-12-14T16:11:56.158Z,99252.31
2022-12-14T16:14:29.433Z,99259.16
2022-12-14T16:17:01.362Z,99248.03
2022-12-14T16:19:57.542Z,99247.34
2022-12-14T16:22:25.731Z,99256.66
2022-12-14T16:25:01.530Z,99224.22
2022-12-14T16:27:30.852Z,99240.47
2022-12-14T16:30:18.156Z,99252.72
2022-12-14T16:32:50.114Z,99212.53
2022-12-14T16:35:34.580Z,99231.34
2022-12-14T16:38:14.808Z,99231.16
2022-12-14T16:40:45.307Z,99232.94
2022-12-14T16:43:28.331Z,99263.47
2022-12-14T16:46:13.508Z,99237.53
2022-12-14T16:49:09.610Z,99249.63
2022-12-14T16:54:32.479Z,99237.69
2022-12-14T16:57:04.193Z,99230.03
2022-12-14T16:59:41.840Z,99237.78
2022-12-14T17:02:29.671Z,99243.06
2022-12-14T17:05:01.688Z,99252.50
2022-12-14T17:07:33.027Z,99239.75
2022-12-14T17:10:01.468Z,99250.91
2022-12-14T17:12:29.807Z,99250.19
2022-12-14T17:14:58.090Z,99249.41
2022-12-14T17:17:33.346Z,99246.75
2022-12-14T17:20:09.209Z,99238.84
2022-12-14T17:22:40.371Z,99246.69
2022-12-14T17:25:09.441Z,99242.34
2022-12-14T17:27:37.951Z,99239.84
2022-12-14T17:30:07.847Z,99281.59
2022-12-14T17:32:36.315Z,99268.09
2022-12-14T17:35:11.435Z,99252.84
2022-12-14T17:37:39.787Z,99260.50
2022-12-14T17:40:08.768Z,99251.81
2022-12-14T17:42:40.178Z,99261.16
2022-12-14T17:45:20.087Z,99250.09
2022-12-14T17:47:48.673Z,99245.16
2022-12-14T17:50:20.170Z,99268.28
2022-12-14T17:52:50.431Z,99256.50
2022-12-14T17:55:20.770Z,99260.75
2022-12-14T17:57:49.403Z,99256.41
2022-12-14T18:00:36.471Z,99256.47
2022-12-14T18:03:05.944Z,99259.16
2022-12-14T18:05:36.159Z,99258.09
2022-12-14T18:08:05.387Z,99245.22
2022-12-14T18:10:33.705Z,99239.44
2022-12-14T18:13:02.929Z,99249.66
2022-12-14T18:15:36.640Z,99255.03
2022-12-14T18:18:05.324Z,99269.53
2022-12-14T18:20:33.699Z,99258.44
2022-12-14T18:23:03.705Z,99254.13
2022-12-14T18:25:35.226Z,99247.19
2022-12-14T18:28:06.909Z,99249.75
2022-12-14T18:30:47.573Z,99244.69
2022-12-14T18:33:20.394Z,99246.34
2022-12-14T18:35:49.988Z,99244.63
2022-12-14T18:38:19.689Z,99242.97
2022-12-14T18:40:50.281Z,99253.94
2022-12-14T18:43:20.992Z,99251.41
2022-12-14T18:45:49.470Z,99260.59
2022-12-14T18:48:17.695Z,99269.91
2022-12-14T18:50:46.100Z,99277.66
2022-12-14T18:53:22.324Z,99288.75
2022-12-14T18:55:50.965Z,99286.19
2022-12-14T18:58:21.501Z,99309.06
2022-12-14T19:00:51.767Z,99291.22
2022-12-14T19:03:20.546Z,99296.44
2022-12-14T19:05:48.985Z,99307.44
2022-12-14T19:08:18.272Z,99306.59
2022-12-14T19:10:49.381Z,99309.13
2022-12-14T19:13:25.489Z,99310.00
2022-12-14T19:15:55.010Z,99302.53
2022-12-14T19:18:23.340Z,99310.34
2022-12-14T19:20:51.642Z,99295.06
2022-12-14T19:23:20.967Z,99298.47
2022-12-14T19:25:50.824Z,99304.50
2022-12-14T19:28:32.541Z,99301.09
2022-12-14T19:31:02.554Z,99295.06
2022-12-14T19:33:32.162Z,99301.28
2022-12-14T19:36:01.447Z,99297.84
2022-12-14T19:38:30.021Z,99297.94
2022-12-14T19:41:02.678Z,99308.16
2022-12-14T19:43:32.237Z,99324.28
2022-12-14T19:46:01.722Z,99327.53
2022-12-14T19:48:30.843Z,99314.06
2022-12-14T19:50:59.206Z,99303.91
2022-12-14T19:53:27.605Z,99302.28
2022-12-14T19:55:55.905Z,99310.63
2022-12-14T19:58:26.149Z,99327.78
2022-12-14T20:00:54.723Z,99326.22
2022-12-14T20:03:23.724Z,99308.31
2022-12-14T20:05:53.875Z,99315.13
2022-12-14T20:08:23.083Z,99327.00
2022-12-14T20:10:53.857Z,99327.94
2022-12-14T20:13:22.995Z,99328.88
2022-12-14T20:15:55.069Z,99344.28
2022-12-14T20:18:24.434Z,99318.63
2022-12-14T20:20:53.525Z,99325.59
2022-12-14T20:23:22.825Z,99322.13
2022-12-14T20:25:51.110Z,99340.94
2022-12-14T20:28:19.677Z,99325.66
2022-12-14T20:30:49.135Z,99324.13
2022-12-14T20:33:18.888Z,99324.19
2022-12-14T20:35:50.987Z,99328.41
2022-12-14T20:38:19.395Z,99328.38
2022-12-14T20:40:49.382Z,99335.22
2022-12-14T20:43:17.830Z,99342.97
2022-12-14T20:45:46.245Z,99340.34
2022-12-14T20:48:14.731Z,99348.09
2022-12-14T20:50:51.065Z,99352.38
2022-12-14T20:53:21.446Z,99338.63
2022-12-14T20:55:49.868Z,99350.63
2022-12-14T20:58:18.393Z,99348.94
2022-12-14T21:00:47.115Z,99353.13
2022-12-14T21:03:15.775Z,99356.59
2022-12-14T21:05:46.404Z,99350.63
2022-12-14T21:08:15.940Z,99350.56
2022-12-14T21:10:44.260Z,99349.81
2022-12-14T21:13:11.641Z,99366.75
2022-12-14T21:15:40.011Z,99362.41
2022-12-14T21:18:08.657Z,99370.94
2022-12-14T21:20:38.150Z,99362.34
2022-12-14T21:23:07.959Z,99369.09
2022-12-14T21:25:36.357Z,99367.19
2022-12-14T21:28:04.862Z,99365.53
2022-12-14T21:30:33.491Z,99372.44
2022-12-14T21:33:02.156Z,99370.75
2022-12-14T21:35:33.151Z,99393.00
2022-12-14T21:38:01.442Z,99383.78
2022-12-14T21:40:49.005Z,99385.38
2022-12-14T21:43:17.523Z,99384.53
2022-12-14T21:45:46.356Z,99383.75
2022-12-14T21:48:14.959Z,99379.53
2022-12-14T21:50:45.433Z,99385.38
2022-12-14T21:53:13.970Z,99389.50
2022-12-14T21:55:51.257Z,99393.66
2022-12-14T21:58:18.873Z,99386.03
2022-12-14T22:00:47.256Z,99391.22
2022-12-14T22:03:15.702Z,99392.75
2022-12-14T22:05:44.075Z,99385.28
2022-12-14T22:08:12.980Z,99387.66
2022-12-14T22:10:41.385Z,99390.25
2022-12-14T22:13:11.154Z,99388.56
2022-12-14T22:15:39.669Z,99380.16
2022-12-14T22:18:08.266Z,99404.19
2022-12-14T22:20:36.999Z,99405.69
2022-12-14T22:23:05.994Z,99405.63
2022-12-14T22:25:34.288Z,99388.56
2022-12-14T22:28:02.707Z,99404.75
2022-12-14T22:30:32.510Z,99387.56
2022-12-14T22:33:04.366Z,99396.88
2022-12-14T22:35:32.754Z,99425.84
2022-12-14T22:38:01.418Z,99413.09
2022-12-14T22:40:31.476Z,99434.59
2022-12-14T22:43:01.479Z,99421.13
2022-12-14T22:45:31.232Z,99420.31
2022-12-14T22:47:59.520Z,99429.59
2022-12-14T22:50:27.917Z,99427.00
2022-12-14T22:52:56.319Z,99433.63
2022-12-14T22:55:25.113Z,99431.09
2022-12-14T22:57:54.682Z,99436.31
2022-12-14T23:00:23.062Z,99446.47
2022-12-14T23:02:53.605Z,99423.31
2022-12-14T23:05:23.500Z,99449.72
2022-12-14T23:07:53.455Z,99447.91
2022-12-14T23:10:39.059Z,99457.44
2022-12-14T23:13:26.017Z,99464.28
2022-12-14T23:16:14.680Z,99456.53
2022-12-14T23:19:03.081Z,99462.56
2022-12-14T23:21:49.472Z,99455.81
2022-12-14T23:24:35.399Z,99461.06
2022-12-14T23:27:21.267Z,99460.22
2022-12-14T23:30:07.107Z,99461.78
2022-12-14T23:32:52.849Z,99451.41
2022-12-14T23:35:40.054Z,99448.81
2022-12-14T23:38:26.789Z,99463.19
2022-12-14T23:41:17.208Z,99449.59
2022-12-14T23:44:03.104Z,99451.38
2022-12-14T23:46:50.502Z,99441.94
2022-12-14T23:49:36.254Z,99446.22
2022-12-14T23:52:23.632Z,99436.03
2022-12-14T23:55:09.506Z,99440.38
2022-12-14T23:57:55.261Z,99435.97
